Time;durP1;ratioP1;P1;durP2;ratioP2;P2;SDS_P1;SDS_P2;PMS_P1;PMS_P2;Temp;Humidity;BMP_temperature;BMP_pressure;BME280_temperature;BME280_humidity;BME280_pressure;Samples;Min_cycle;Max_cycle;Signal;HPM_P1;HPM_P2
2021/08/02 00:00:50;0.00;0.00;0.62;0.00;0.00;0.62;1.93;1.67;;;26.90;34.70;;;;;;2265550;61;20376;-57
2021/08/02 00:03:25;0.00;0.00;0.62;0.00;0.00;0.62;2.57;1.77;;;26.90;34.70;;;;;;2265348;61;20354;-53
2021/08/02 00:05:57;0.00;0.00;0.62;0.00;0.00;0.62;2.03;1.83;;;26.90;34.70;;;;;;2265968;61;20407;-53
2021/08/02 00:08:27;0.00;0.00;0.62;0.00;0.00;0.62;2.43;2.00;;;26.90;34.80;;;;;;2265602;61;20358;-59
2021/08/02 00:10:59;0.00;0.00;0.62;0.00;0.00;0.62;2.10;1.90;;;26.90;34.80;;;;;;2265039;61;20456;-55
2021/08/02 00:13:30;0.00;0.00;0.62;0.00;0.00;0.62;2.53;1.70;;;26.90;34.80;;;;;;2265944;61;20350;-52
2021/08/02 00:16:05;0.00;0.00;0.62;0.00;0.00;0.62;5.23;1.67;;;26.90;34.80;;;;;;2265632;61;20346;-58
2021/08/02 00:18:34;0.00;0.00;0.62;0.00;0.00;0.62;2.73;2.17;;;26.90;34.80;;;;;;2265118;61;20624;-57
2021/08/02 00:21:05;0.00;0.00;0.62;0.00;0.00;0.62;2.87;2.17;;;26.90;34.80;;;;;;2265670;61;20346;-55
2021/08/02 00:23:32;0.00;0.00;0.62;0.00;0.00;0.62;2.07;1.50;;;26.90;34.80;;;;;;2265601;61;20496;-53
2021/08/02 00:26:04;0.00;0.00;0.62;0.00;0.00;0.62;2.73;1.80;;;26.90;34.80;;;;;;2265135;61;20425;-52
2021/08/02 00:28:31;0.00;0.00;0.62;0.00;0.00;0.62;1.90;1.40;;;26.90;34.80;;;;;;2265789;61;20712;-54
2021/08/02 00:30:58;0.00;0.00;0.62;0.00;0.00;0.62;2.03;1.57;;;26.90;34.80;;;;;;2265523;61;20595;-54
2021/08/02 00:33:26;0.00;0.00;0.62;0.00;0.00;0.62;2.67;2.10;;;26.90;34.70;;;;;;2265393;61;20370;-55
2021/08/02 00:36:06;0.00;0.00;0.62;0.00;0.00;0.62;2.03;1.50;;;26.90;34.70;;;;;;2265752;61;20634;-56
2021/08/02 00:38:47;0.00;0.00;0.62;0.00;0.00;0.62;2.73;1.93;;;26.90;34.70;;;;;;2265228;61;20354;-52
2021/08/02 00:41:58;0.00;0.00;0.62;0.00;0.00;0.62;1.47;1.13;;;26.90;34.70;;;;;;2265375;61;20354;-56
2021/08/02 00:45:11;0.00;0.00;0.62;0.00;0.00;0.62;2.80;1.70;;;26.90;34.70;;;;;;2265007;61;20366;-55
2021/08/02 00:47:45;0.00;0.00;0.62;0.00;0.00;0.62;3.50;1.87;;;26.80;34.70;;;;;;2265015;61;20373;-55
2021/08/02 00:50:15;0.00;0.00;0.62;0.00;0.00;0.62;2.00;1.40;;;26.90;34.80;;;;;;2265633;61;20381;-55
2021/08/02 00:52:51;0.00;0.00;0.62;0.00;0.00;0.62;2.83;1.77;;;26.90;34.80;;;;;;2264986;61;20362;-53
2021/08/02 00:55:19;0.00;0.00;0.62;0.00;0.00;0.62;2.20;1.67;;;26.90;34.80;;;;;;2264684;61;20356;-56
2021/08/02 00:57:48;0.00;0.00;0.62;0.00;0.00;0.62;2.97;1.20;;;26.90;34.80;;;;;;2265178;61;20366;-53
2021/08/02 01:00:18;0.00;0.00;0.62;0.00;0.00;0.62;3.07;1.37;;;26.90;34.80;;;;;;2265415;61;20433;-53
2021/08/02 01:02:52;0.00;0.00;0.62;0.00;0.00;0.62;1.70;1.30;;;26.90;34.80;;;;;;2264728;61;20422;-58
2021/08/02 01:05:20;0.00;0.00;0.62;0.00;0.00;0.62;1.60;1.20;;;26.90;34.80;;;;;;2265537;61;20351;-55
2021/08/02 01:07:56;0.00;0.00;0.62;0.00;0.00;0.62;2.30;1.63;;;26.80;34.80;;;;;;2265623;61;20459;-58
2021/08/02 01:10:24;0.00;0.00;0.62;0.00;0.00;0.62;3.83;1.63;;;26.90;34.80;;;;;;2264920;61;20374;-57
2021/08/02 01:12:55;0.00;0.00;0.62;0.00;0.00;0.62;1.67;1.20;;;26.90;34.80;;;;;;2265178;61;20404;-57
2021/08/02 01:15:22;0.00;0.00;0.62;0.00;0.00;0.62;1.90;1.27;;;26.80;34.80;;;;;;2265522;61;20616;-52
2021/08/02 01:17:54;0.00;0.00;0.62;0.00;0.00;0.62;2.53;1.53;;;26.90;34.90;;;;;;2265045;61;20804;-52
2021/08/02 01:20:23;0.00;0.00;0.62;0.00;0.00;0.62;1.43;1.30;;;26.90;34.80;;;;;;2265037;61;20354;-53
2021/08/02 01:22:51;0.00;0.00;0.62;0.00;0.00;0.62;2.23;1.63;;;26.90;34.80;;;;;;2265510;61;20431;-59
2021/08/02 01:26:09;0.00;0.00;0.62;0.00;0.00;0.62;1.70;1.20;;;26.90;34.90;;;;;;2265229;61;20386;-53
2021/08/02 01:29:32;0.00;0.00;0.62;0.00;0.00;0.62;1.80;1.47;;;26.80;34.80;;;;;;2265473;61;20558;-55
2021/08/02 01:31:59;0.00;0.00;0.62;0.00;0.00;0.62;1.67;1.37;;;26.80;34.80;;;;;;2265236;61;20377;-53
2021/08/02 01:34:26;0.00;0.00;0.62;0.00;0.00;0.62;1.53;1.20;;;26.80;34.80;;;;;;2265746;61;20354;-55
2021/08/02 01:36:53;0.00;0.00;0.62;0.00;0.00;0.62;3.23;2.00;;;26.80;34.90;;;;;;2265717;61;20465;-56
2021/08/02 01:39:22;0.00;0.00;0.62;0.00;0.00;0.62;2.20;1.40;;;26.80;34.90;;;;;;2265821;61;20362;-56
2021/08/02 01:41:49;0.00;0.00;0.62;0.00;0.00;0.62;1.93;1.30;;;26.80;34.90;;;;;;2265501;61;20400;-55
2021/08/02 01:44:17;0.00;0.00;0.62;0.00;0.00;0.62;1.80;1.27;;;26.80;34.90;;;;;;2265735;61;20694;-56
2021/08/02 01:46:53;0.00;0.00;0.62;0.00;0.00;0.62;3.07;1.67;;;26.80;35.00;;;;;;2265444;61;20381;-58
2021/08/02 01:49:30;0.00;0.00;0.62;0.00;0.00;0.62;1.60;1.23;;;26.80;35.00;;;;;;2265728;61;20388;-57
2021/08/02 01:51:57;0.00;0.00;0.62;0.00;0.00;0.62;1.90;1.20;;;26.80;35.00;;;;;;2266081;61;20353;-58
2021/08/02 01:54:41;0.00;0.00;0.62;0.00;0.00;0.62;1.80;1.20;;;26.80;35.00;;;;;;2265142;61;20433;-55
2021/08/02 01:57:15;0.00;0.00;0.62;0.00;0.00;0.62;1.90;1.23;;;26.80;35.00;;;;;;2265703;61;20416;-54
2021/08/02 02:00:11;0.00;0.00;0.62;0.00;0.00;0.62;1.67;1.27;;;26.80;35.00;;;;;;2265364;61;20369;-55
2021/08/02 02:03:07;0.00;0.00;0.62;0.00;0.00;0.62;2.13;1.50;;;26.80;35.00;;;;;;2265446;61;20361;-56
2021/08/02 02:05:48;0.00;0.00;0.62;0.00;0.00;0.62;2.27;1.30;;;26.80;35.00;;;;;;2265585;61;20346;-58
2021/08/02 02:08:22;0.00;0.00;0.62;0.00;0.00;0.62;2.93;1.20;;;26.80;35.00;;;;;;2265458;61;20356;-57
2021/08/02 02:10:54;0.00;0.00;0.62;0.00;0.00;0.62;1.70;1.17;;;26.80;34.90;;;;;;2265750;61;20447;-58
2021/08/02 02:13:33;0.00;0.00;0.62;0.00;0.00;0.62;2.93;1.53;;;26.80;34.90;;;;;;2265584;61;20373;-58
2021/08/02 02:16:02;0.00;0.00;0.62;0.00;0.00;0.62;2.03;1.20;;;26.80;34.90;;;;;;2265232;61;20424;-56
2021/08/02 02:18:34;0.00;0.00;0.62;0.00;0.00;0.62;6.20;2.20;;;26.80;34.90;;;;;;2265311;61;20362;-55
2021/08/02 02:21:03;0.00;0.00;0.62;0.00;0.00;0.62;1.60;1.10;;;26.80;34.90;;;;;;2265509;61;20345;-53
2021/08/02 02:23:31;0.00;0.00;0.62;0.00;0.00;0.62;1.80;1.23;;;26.80;34.90;;;;;;2265356;61;20705;-56
2021/08/02 02:26:00;0.00;0.00;0.62;0.00;0.00;0.62;1.73;1.43;;;26.70;34.80;;;;;;2265914;61;20354;-52
2021/08/02 02:28:31;0.00;0.00;0.62;0.00;0.00;0.62;1.83;1.23;;;26.80;34.90;;;;;;2265419;61;20695;-52
2021/08/02 02:31:09;0.00;0.00;0.62;0.00;0.00;0.62;2.80;1.30;;;26.70;34.80;;;;;;2265169;61;20412;-57
2021/08/02 02:33:36;0.00;0.00;0.62;0.00;0.00;0.62;2.93;1.70;;;26.70;34.80;;;;;;2265516;61;20357;-57
2021/08/02 02:36:05;0.00;0.00;0.62;0.00;0.00;0.62;4.07;1.50;;;26.70;34.80;;;;;;2265448;61;20726;-57
2021/08/02 02:38:34;0.00;0.00;0.62;0.00;0.00;0.62;2.10;1.10;;;26.70;34.80;;;;;;2265106;61;20573;-55
2021/08/02 02:41:04;0.00;0.00;0.62;0.00;0.00;0.62;2.20;1.10;;;26.70;34.80;;;;;;2265854;61;20357;-58
2021/08/02 02:43:36;0.00;0.00;0.62;0.00;0.00;0.62;1.57;1.00;;;26.70;34.80;;;;;;2265904;61;20567;-56
2021/08/02 02:46:02;0.00;0.00;0.62;0.00;0.00;0.62;2.23;1.40;;;26.70;34.80;;;;;;2265640;61;20762;-55
2021/08/02 02:48:30;0.00;0.00;0.62;0.00;0.00;0.62;2.00;1.60;;;26.70;34.80;;;;;;2265574;61;20362;-52
2021/08/02 02:50:58;0.00;0.00;0.62;0.00;0.00;0.62;1.50;1.27;;;26.70;34.80;;;;;;2265299;61;20374;-58
2021/08/02 02:53:26;0.00;0.00;0.62;0.00;0.00;0.62;2.90;1.40;;;26.70;34.70;;;;;;2265313;61;20600;-52
2021/08/02 02:55:56;0.00;0.00;0.62;0.00;0.00;0.62;2.30;1.53;;;26.70;34.70;;;;;;2265513;61;20702;-56
2021/08/02 02:58:25;0.00;0.00;0.62;0.00;0.00;0.62;2.10;1.30;;;26.70;34.70;;;;;;2265271;61;20697;-55
2021/08/02 03:00:53;0.00;0.00;0.62;0.00;0.00;0.62;1.60;1.10;;;26.70;34.70;;;;;;2265552;61;20362;-57
2021/08/02 03:03:23;0.00;0.00;0.62;0.00;0.00;0.62;1.87;1.23;;;26.70;34.70;;;;;;2266042;61;20349;-55
2021/08/02 03:05:53;0.00;0.00;0.62;0.00;0.00;0.62;2.63;1.30;;;26.70;34.80;;;;;;2265700;61;20362;-56
2021/08/02 03:08:25;0.00;0.00;0.62;0.00;0.00;0.62;2.07;1.30;;;26.60;34.70;;;;;;2265014;61;20362;-53
2021/08/02 03:10:53;0.00;0.00;0.62;0.00;0.00;0.62;2.43;1.33;;;26.60;34.70;;;;;;2265987;61;20385;-56
2021/08/02 03:13:20;0.00;0.00;0.62;0.00;0.00;0.62;1.80;1.27;;;26.60;34.70;;;;;;2265731;61;20358;-54
2021/08/02 03:15:49;0.00;0.00;0.62;0.00;0.00;0.62;2.40;1.50;;;26.60;34.80;;;;;;2265384;61;20433;-55
2021/08/02 03:18:15;0.00;0.00;0.62;0.00;0.00;0.62;3.40;1.37;;;26.60;34.80;;;;;;2266047;61;20596;-52
2021/08/02 03:20:42;0.00;0.00;0.62;0.00;0.00;0.62;1.87;1.37;;;26.60;34.80;;;;;;2265515;61;20364;-53
2021/08/02 03:23:16;0.00;0.00;0.62;0.00;0.00;0.62;1.77;1.40;;;26.60;34.80;;;;;;2264990;61;20447;-54
2021/08/02 03:25:48;0.00;0.00;0.62;0.00;0.00;0.62;1.53;1.37;;;26.60;34.80;;;;;;2266014;61;20354;-57
2021/08/02 03:28:20;0.00;0.00;0.62;0.00;0.00;0.62;1.97;1.43;;;26.60;34.80;;;;;;2265782;61;20361;-55
2021/08/02 03:30:50;0.00;0.00;0.62;0.00;0.00;0.62;1.60;1.00;;;26.60;34.80;;;;;;2265316;61;20385;-53
2021/08/02 03:33:24;0.00;0.00;0.62;0.00;0.00;0.62;2.57;1.30;;;26.60;34.80;;;;;;2265907;61;20358;-57
2021/08/02 03:35:53;0.00;0.00;0.62;0.00;0.00;0.62;1.97;1.60;;;26.60;34.80;;;;;;2265784;61;20578;-52
2021/08/02 03:38:22;0.00;0.00;0.62;0.00;0.00;0.62;1.80;1.50;;;26.60;34.80;;;;;;2264894;61;20744;-54
2021/08/02 03:40:51;0.00;0.00;0.62;0.00;0.00;0.62;3.57;1.60;;;26.50;35.40;;;;;;2265789;61;20682;-57
2021/08/02 03:43:18;0.00;0.00;0.62;0.00;0.00;0.62;3.57;1.70;;;26.50;34.70;;;;;;2265775;61;20437;-55
2021/08/02 03:45:47;0.00;0.00;0.62;0.00;0.00;0.62;1.67;1.30;;;26.50;34.70;;;;;;2264927;61;20706;-57
2021/08/02 03:48:15;0.00;0.00;0.62;0.00;0.00;0.62;1.43;1.10;;;26.50;34.70;;;;;;2265891;61;20361;-55
2021/08/02 03:50:41;0.00;0.00;0.62;0.00;0.00;0.62;1.80;1.40;;;26.50;34.70;;;;;;2265631;61;20604;-55
2021/08/02 03:53:08;0.00;0.00;0.62;0.00;0.00;0.62;2.50;1.40;;;26.50;34.70;;;;;;2265264;61;20350;-57
2021/08/02 03:55:35;0.00;0.00;0.62;0.00;0.00;0.62;1.70;1.30;;;26.50;34.70;;;;;;2265809;61;20346;-53
2021/08/02 03:58:04;0.00;0.00;0.62;0.00;0.00;0.62;1.30;0.97;;;26.50;34.70;;;;;;2265507;61;20374;-56
2021/08/02 04:00:30;0.00;0.00;0.62;0.00;0.00;0.62;2.87;1.50;;;26.50;34.70;;;;;;2265048;61;20349;-53
2021/08/02 04:02:57;0.00;0.00;0.62;0.00;0.00;0.62;1.83;1.10;;;26.50;34.70;;;;;;2265922;61;20385;-53
2021/08/02 04:05:25;0.00;0.00;0.62;0.00;0.00;0.62;2.80;1.60;;;26.50;34.70;;;;;;2265735;61;20361;-53
2021/08/02 04:07:52;0.00;0.00;0.62;0.00;0.00;0.62;4.57;1.40;;;26.50;34.60;;;;;;2265087;61;20405;-57
2021/08/02 04:10:20;0.00;0.00;0.62;0.00;0.00;0.62;1.90;1.17;;;26.50;35.30;;;;;;2265674;61;20260;-55
2021/08/02 04:12:47;0.00;0.00;0.62;0.00;0.00;0.62;1.70;1.10;;;26.50;34.60;;;;;;2265654;61;20351;-52
2021/08/02 04:15:13;0.00;0.00;0.62;0.00;0.00;0.62;2.13;1.33;;;26.40;34.50;;;;;;2265162;61;20390;-58
2021/08/02 04:17:40;0.00;0.00;0.62;0.00;0.00;0.62;2.10;1.30;;;26.40;34.50;;;;;;2265722;61;20405;-54
2021/08/02 04:20:09;0.00;0.00;0.62;0.00;0.00;0.62;1.97;1.50;;;26.40;35.20;;;;;;2265463;61;20357;-55
2021/08/02 04:22:37;0.00;0.00;0.62;0.00;0.00;0.62;2.67;1.33;;;26.40;34.50;;;;;;2265154;61;20723;-58
2021/08/02 04:25:05;0.00;0.00;0.62;0.00;0.00;0.62;1.70;1.17;;;26.40;34.50;;;;;;2265810;61;20352;-55
2021/08/02 04:27:32;0.00;0.00;0.62;0.00;0.00;0.62;1.80;1.30;;;26.40;34.50;;;;;;2265614;61;20636;-56
2021/08/02 04:29:58;0.00;0.00;0.62;0.00;0.00;0.62;2.40;1.57;;;26.40;34.50;;;;;;2264988;61;20354;-54
2021/08/02 04:32:25;0.00;0.00;0.62;0.00;0.00;0.62;3.83;1.40;;;26.40;34.50;;;;;;2265814;61;20699;-56
2021/08/02 04:34:51;0.00;0.00;0.62;0.00;0.00;0.62;2.23;1.53;;;26.40;34.40;;;;;;2265196;61;20360;-54
2021/08/02 04:37:18;0.00;0.00;0.62;0.00;0.00;0.62;1.70;1.13;;;26.40;34.40;;;;;;2265038;61;20373;-53
2021/08/02 04:39:46;0.00;0.00;0.62;0.00;0.00;0.62;2.07;1.33;;;26.40;34.40;;;;;;2265630;61;20666;-57
2021/08/02 04:42:14;0.00;0.00;0.62;0.00;0.00;0.62;1.87;1.23;;;26.40;34.40;;;;;;2265511;61;20358;-52
2021/08/02 04:44:40;0.00;0.00;0.62;0.00;0.00;0.62;7.30;2.23;;;26.40;34.40;;;;;;2265085;61;20394;-55
2021/08/02 04:47:07;0.00;0.00;0.62;0.00;0.00;0.62;2.07;1.20;;;26.40;34.40;;;;;;2265757;61;20457;-57
2021/08/02 04:49:33;0.00;0.00;0.62;0.00;0.00;0.62;2.77;1.20;;;26.40;34.40;;;;;;2265422;61;20369;-52
2021/08/02 04:52:00;0.00;0.00;0.62;0.00;0.00;0.62;3.37;1.40;;;26.30;34.30;;;;;;2265288;61;20465;-58
2021/08/02 04:54:26;0.00;0.00;0.62;0.00;0.00;0.62;2.07;1.07;;;26.30;34.30;;;;;;2265214;61;20403;-55
2021/08/02 04:56:54;0.00;0.00;0.62;0.00;0.00;0.62;2.17;1.17;;;26.30;34.30;;;;;;2264983;61;20461;-57
2021/08/02 04:59:21;0.00;0.00;0.62;0.00;0.00;0.62;1.63;1.20;;;26.30;34.30;;;;;;2264928;61;20362;-54
2021/08/02 05:01:47;0.00;0.00;0.62;0.00;0.00;0.62;3.10;1.57;;;26.30;34.30;;;;;;2265671;61;20350;-58
2021/08/02 05:04:14;0.00;0.00;0.62;0.00;0.00;0.62;1.50;1.10;;;26.30;34.30;;;;;;2265487;61;20400;-57
2021/08/02 05:06:40;0.00;0.00;0.62;0.00;0.00;0.62;2.13;1.53;;;26.30;34.30;;;;;;2265141;61;20370;-55
2021/08/02 05:09:07;0.00;0.00;0.62;0.00;0.00;0.62;1.73;1.20;;;26.30;34.30;;;;;;2266138;61;20358;-56
2021/08/02 05:11:33;0.00;0.00;0.62;0.00;0.00;0.62;3.60;1.40;;;26.30;34.20;;;;;;2266083;61;20757;-56
2021/08/02 05:14:01;0.00;0.00;0.62;0.00;0.00;0.62;1.50;1.13;;;26.30;34.10;;;;;;2266017;61;20354;-54
2021/08/02 05:16:28;0.00;0.00;0.62;0.00;0.00;0.62;1.70;1.10;;;26.30;34.10;;;;;;2266119;61;20385;-52
2021/08/02 05:18:55;0.00;0.00;0.62;0.00;0.00;0.62;3.40;1.67;;;26.30;34.00;;;;;;2266058;61;20346;-53
2021/08/02 05:21:21;0.00;0.00;0.62;0.00;0.00;0.62;5.03;1.40;;;26.30;34.00;;;;;;2265886;61;20560;-55
2021/08/02 05:23:48;0.00;0.00;0.62;0.00;0.00;0.62;2.60;0.90;;;26.20;34.60;;;;;;2266147;61;20567;-57
2021/08/02 05:26:14;0.00;0.00;0.62;0.00;0.00;0.62;2.00;1.03;;;26.20;33.90;;;;;;2266194;61;20378;-52
2021/08/02 05:28:41;0.00;0.00;0.62;0.00;0.00;0.62;2.53;1.90;;;26.20;33.70;;;;;;2265953;61;20599;-53
2021/08/02 05:31:09;0.00;0.00;0.62;0.00;0.00;0.62;3.60;1.60;;;26.20;33.30;;;;;;2265917;61;20373;-53
2021/08/02 05:33:35;0.00;0.00;0.62;0.00;0.00;0.62;5.73;1.77;;;26.10;33.00;;;;;;2266167;61;20700;-52
2021/08/02 05:36:04;0.00;0.00;0.62;0.00;0.00;0.62;2.03;1.50;;;26.10;32.90;;;;;;2265925;61;20388;-60
2021/08/02 05:38:31;0.00;0.00;0.62;0.00;0.00;0.62;2.00;1.17;;;26.00;32.70;;;;;;2265346;61;20468;-59
2021/08/02 05:40:58;0.00;0.00;0.62;0.00;0.00;0.62;4.03;1.50;;;26.00;32.70;;;;;;2265872;61;20686;-58
2021/08/02 05:43:25;0.00;0.00;0.62;0.00;0.00;0.62;5.23;1.40;;;25.90;32.60;;;;;;2265100;61;20350;-60
2021/08/02 05:45:52;0.00;0.00;0.62;0.00;0.00;0.62;3.70;1.40;;;25.80;32.60;;;;;;2265896;61;20433;-60
2021/08/02 05:48:20;0.00;0.00;0.62;0.00;0.00;0.62;5.50;1.60;;;25.80;32.60;;;;;;2266743;61;20547;-58
2021/08/02 05:50:47;0.00;0.00;0.62;0.00;0.00;0.62;4.00;1.57;;;25.70;32.60;;;;;;2266016;61;20389;-61
2021/08/02 05:53:13;0.00;0.00;0.62;0.00;0.00;0.62;1.63;1.07;;;25.70;32.60;;;;;;2266052;61;20361;-58
2021/08/02 05:55:40;0.00;0.00;0.62;0.00;0.00;0.62;3.30;1.63;;;25.60;32.60;;;;;;2266204;61;20358;-57
2021/08/02 05:58:07;0.00;0.00;0.62;0.00;0.00;0.62;3.30;1.53;;;25.60;32.60;;;;;;2265347;61;20373;-56
2021/08/02 06:00:34;0.00;0.00;0.62;0.00;0.00;0.62;3.23;1.70;;;25.50;32.80;;;;;;2265937;61;20350;-61
2021/08/02 06:03:01;0.00;0.00;0.62;0.00;0.00;0.62;1.97;1.17;;;25.40;32.70;;;;;;2265573;61;20698;-60
2021/08/02 06:05:29;0.00;0.00;0.62;0.00;0.00;0.62;1.87;1.37;;;25.40;32.90;;;;;;2265787;61;20683;-55
2021/08/02 06:07:55;0.00;0.00;0.62;0.00;0.00;0.62;1.90;1.20;;;25.40;33.00;;;;;;2266055;61;20391;-54
2021/08/02 06:10:22;0.00;0.00;0.62;0.00;0.00;0.62;2.30;1.60;;;25.30;33.10;;;;;;2265885;61;20511;-59
2021/08/02 06:12:49;0.00;0.00;0.62;0.00;0.00;0.62;1.90;1.17;;;25.20;33.00;;;;;;2265686;61;20436;-58
2021/08/02 06:15:15;0.00;0.00;0.62;0.00;0.00;0.62;3.03;1.37;;;25.20;33.10;;;;;;2266134;61;20361;-58
2021/08/02 06:17:42;0.00;0.00;0.62;0.00;0.00;0.62;2.40;1.43;;;25.10;33.10;;;;;;2265898;61;20377;-55
2021/08/02 06:20:10;0.00;0.00;0.62;0.00;0.00;0.62;5.10;1.30;;;25.10;33.10;;;;;;2265226;61;20361;-59
2021/08/02 06:22:39;0.00;0.00;0.62;0.00;0.00;0.62;3.83;1.63;;;25.10;33.10;;;;;;2265958;61;20374;-59
2021/08/02 06:25:07;0.00;0.00;0.62;0.00;0.00;0.62;5.53;1.60;;;25.10;33.20;;;;;;2265995;61;20384;-58
2021/08/02 06:27:36;0.00;0.00;0.62;0.00;0.00;0.62;3.53;1.80;;;25.00;33.20;;;;;;2266125;61;20381;-60
2021/08/02 06:30:04;0.00;0.00;0.62;0.00;0.00;0.62;1.80;1.30;;;25.00;33.30;;;;;;2266074;61;20347;-57
2021/08/02 06:32:31;0.00;0.00;0.62;0.00;0.00;0.62;4.27;1.60;;;25.00;33.40;;;;;;2266167;61;20358;-56
2021/08/02 06:34:57;0.00;0.00;0.62;0.00;0.00;0.62;5.00;1.60;;;25.00;33.40;;;;;;2265969;61;20453;-59
2021/08/02 06:37:26;0.00;0.00;0.62;0.00;0.00;0.62;2.63;1.87;;;24.90;33.40;;;;;;2265954;61;20378;-60
2021/08/02 06:39:54;0.00;0.00;0.62;0.00;0.00;0.62;3.73;1.60;;;24.90;33.50;;;;;;2265751;61;20384;-58
2021/08/02 06:42:22;0.00;0.00;0.62;0.00;0.00;0.62;2.70;1.90;;;24.90;33.60;;;;;;2263815;61;20377;-59
2021/08/02 06:44:48;0.00;0.00;0.62;0.00;0.00;0.62;3.33;1.33;;;24.90;33.60;;;;;;2265330;61;20784;-61
2021/08/02 06:47:15;0.00;0.00;0.62;0.00;0.00;0.62;2.77;1.20;;;24.80;33.60;;;;;;2266081;61;20590;-59
2021/08/02 06:49:42;0.00;0.00;0.62;0.00;0.00;0.62;2.50;1.50;;;24.80;33.60;;;;;;2265919;61;20368;-60
2021/08/02 06:52:09;0.00;0.00;0.62;0.00;0.00;0.62;2.87;1.40;;;24.80;33.60;;;;;;2265626;61;20754;-57
2021/08/02 06:54:36;0.00;0.00;0.62;0.00;0.00;0.62;2.10;1.33;;;24.80;33.70;;;;;;2266112;61;20613;-60
2021/08/02 06:57:04;0.00;0.00;0.62;0.00;0.00;0.62;2.90;1.30;;;24.80;33.60;;;;;;2265813;61;20686;-59
2021/08/02 06:59:31;0.00;0.00;0.62;0.00;0.00;0.62;5.20;1.30;;;24.70;33.60;;;;;;2265530;61;20437;-59
2021/08/02 07:01:57;0.00;0.00;0.62;0.00;0.00;0.62;4.30;1.33;;;24.70;33.60;;;;;;2266060;61;20759;-57
2021/08/02 07:04:24;0.00;0.00;0.62;0.00;0.00;0.62;7.50;1.60;;;24.70;33.70;;;;;;2265848;61;20377;-52
2021/08/02 07:06:50;0.00;0.00;0.62;0.00;0.00;0.62;3.50;1.40;;;24.70;33.80;;;;;;2265514;61;20389;-52
2021/08/02 07:09:17;0.00;0.00;0.62;0.00;0.00;0.62;2.60;1.10;;;24.70;33.90;;;;;;2266137;61;20363;-52
2021/08/02 07:11:44;0.00;0.00;0.62;0.00;0.00;0.62;3.40;1.23;;;24.60;33.80;;;;;;2265595;61;20382;-57
2021/08/02 07:14:12;0.00;0.00;0.62;0.00;0.00;0.62;2.37;1.20;;;24.60;33.90;;;;;;2265601;61;20429;-55
2021/08/02 07:16:38;0.00;0.00;0.62;0.00;0.00;0.62;3.47;1.50;;;24.60;33.90;;;;;;2266119;61;20374;-54
2021/08/02 07:19:05;0.00;0.00;0.62;0.00;0.00;0.62;3.50;1.47;;;24.60;33.80;;;;;;2265851;61;20400;-56
2021/08/02 07:21:32;0.00;0.00;0.62;0.00;0.00;0.62;2.60;1.40;;;24.60;33.80;;;;;;2265329;61;20361;-59
2021/08/02 07:23:58;0.00;0.00;0.62;0.00;0.00;0.62;2.07;1.07;;;24.60;33.80;;;;;;2266136;61;20365;-58
2021/08/02 07:26:26;0.00;0.00;0.62;0.00;0.00;0.62;2.30;1.30;;;24.50;33.70;;;;;;2265577;61;20409;-54
2021/08/02 07:28:57;0.00;0.00;0.62;0.00;0.00;0.62;3.07;1.30;;;24.50;33.70;;;;;;2265470;61;20354;-53
2021/08/02 07:31:25;0.00;0.00;0.62;0.00;0.00;0.62;4.93;1.80;;;24.50;33.80;;;;;;2265728;61;20600;-55
2021/08/02 07:33:52;0.00;0.00;0.62;0.00;0.00;0.62;2.60;1.67;;;24.50;33.80;;;;;;2265793;61;20358;-54
2021/08/02 07:36:18;0.00;0.00;0.62;0.00;0.00;0.62;3.03;1.87;;;24.50;33.80;;;;;;2265469;61;20381;-55
2021/08/02 07:38:45;0.00;0.00;0.62;0.00;0.00;0.62;2.60;1.60;;;24.40;33.70;;;;;;2265952;61;20358;-54
2021/08/02 07:41:12;0.00;0.00;0.62;0.00;0.00;0.62;2.53;1.30;;;24.40;33.80;;;;;;2265581;61;20582;-57
2021/08/02 07:43:39;0.00;0.00;0.62;0.00;0.00;0.62;3.83;1.63;;;24.40;33.80;;;;;;2265298;61;20358;-52
2021/08/02 07:46:06;0.00;0.00;0.62;0.00;0.00;0.62;3.27;1.70;;;24.40;33.90;;;;;;2265930;61;20381;-52
2021/08/02 07:48:34;0.00;0.00;0.62;0.00;0.00;0.62;2.23;1.50;;;24.40;33.90;;;;;;2265709;61;20357;-54
2021/08/02 07:51:01;0.00;0.00;0.62;0.00;0.00;0.62;2.93;1.50;;;24.30;33.90;;;;;;2265237;61;20374;-51
2021/08/02 07:53:27;0.00;0.00;0.62;0.00;0.00;0.62;3.47;1.40;;;24.30;33.90;;;;;;2265938;61;20381;-54
2021/08/02 07:55:54;0.00;0.00;0.62;0.00;0.00;0.62;4.60;1.60;;;24.30;33.90;;;;;;2265699;61;20408;-51
2021/08/02 07:58:21;0.00;0.00;0.62;0.00;0.00;0.62;3.67;1.63;;;24.30;34.00;;;;;;2265266;61;20615;-52
2021/08/02 08:00:48;0.00;0.00;0.62;0.00;0.00;0.62;5.53;1.90;;;24.30;34.00;;;;;;2265888;61;20354;-55
2021/08/02 08:03:14;0.00;0.00;0.62;0.00;0.00;0.62;4.20;1.83;;;24.40;34.10;;;;;;2265629;61;20393;-54
2021/08/02 08:05:42;0.00;0.00;0.62;0.00;0.00;0.62;3.60;1.60;;;24.30;34.00;;;;;;2264805;61;20578;-55
2021/08/02 08:08:09;0.00;0.00;0.62;0.00;0.00;0.62;7.40;2.00;;;24.30;34.00;;;;;;2265437;61;20584;-53
2021/08/02 08:10:36;0.00;0.00;0.62;0.00;0.00;0.62;3.40;1.30;;;24.30;34.00;;;;;;2265967;61;20428;-53
2021/08/02 08:13:03;0.00;0.00;0.62;0.00;0.00;0.62;2.43;1.43;;;24.30;34.00;;;;;;2265187;61;20364;-53
2021/08/02 08:15:29;0.00;0.00;0.62;0.00;0.00;0.62;6.40;2.33;;;24.30;34.00;;;;;;2265420;61;20432;-55
2021/08/02 08:17:56;0.00;0.00;0.62;0.00;0.00;0.62;3.57;1.60;;;24.30;34.00;;;;;;2265329;61;20374;-56
2021/08/02 08:20:24;0.00;0.00;0.62;0.00;0.00;0.62;3.87;1.70;;;24.30;34.00;;;;;;2264514;61;20364;-52
2021/08/02 08:22:53;0.00;0.00;0.62;0.00;0.00;0.62;6.37;2.10;;;24.30;34.00;;;;;;2265163;61;20366;-53
2021/08/02 08:25:20;0.00;0.00;0.62;0.00;0.00;0.62;4.20;1.60;;;24.30;33.90;;;;;;2265118;61;20358;-55
2021/08/02 08:27:49;0.00;0.00;0.62;0.00;0.00;0.62;2.70;1.50;;;24.20;33.80;;;;;;2264609;61;20376;-54
2021/08/02 08:30:17;0.00;0.00;0.62;0.00;0.00;0.62;2.73;1.47;;;24.20;33.80;;;;;;2265165;61;20354;-51
2021/08/02 08:32:44;0.00;0.00;0.62;0.00;0.00;0.62;2.33;1.63;;;24.20;33.80;;;;;;2264829;61;20717;-52
2021/08/02 08:35:12;0.00;0.00;0.62;0.00;0.00;0.62;3.93;1.70;;;24.20;33.80;;;;;;2264617;61;20615;-56
2021/08/02 08:37:40;0.00;0.00;0.62;0.00;0.00;0.62;4.10;2.57;;;24.20;33.80;;;;;;2265115;61;20377;-53
2021/08/02 08:40:10;0.00;0.00;0.62;0.00;0.00;0.62;2.90;1.53;;;24.20;33.90;;;;;;2264987;61;20354;-53
2021/08/02 08:42:40;0.00;0.00;0.62;0.00;0.00;0.62;4.83;1.70;;;24.20;33.90;;;;;;2264435;61;20354;-56
2021/08/02 08:45:09;0.00;0.00;0.62;0.00;0.00;0.62;3.30;1.37;;;24.20;33.90;;;;;;2265164;61;20358;-54
2021/08/02 08:47:36;0.00;0.00;0.62;0.00;0.00;0.62;4.23;2.23;;;24.20;33.90;;;;;;2265025;61;20385;-54
2021/08/02 08:50:05;0.00;0.00;0.62;0.00;0.00;0.62;5.00;1.70;;;24.20;33.80;;;;;;2264523;61;20570;-51
2021/08/02 08:52:35;0.00;0.00;0.62;0.00;0.00;0.62;3.33;1.50;;;24.20;33.70;;;;;;2265135;61;20426;-53
2021/08/02 08:55:07;0.00;0.00;0.62;0.00;0.00;0.62;3.20;1.67;;;24.20;33.60;;;;;;2265176;61;20422;-56
2021/08/02 08:57:34;0.00;0.00;0.62;0.00;0.00;0.62;5.03;1.50;;;24.20;33.40;;;;;;2264575;61;20599;-52
2021/08/02 09:00:01;0.00;0.00;0.62;0.00;0.00;0.62;5.93;1.93;;;24.20;33.30;;;;;;2265011;61;20361;-53
2021/08/02 09:02:29;0.00;0.00;0.62;0.00;0.00;0.62;1.80;1.50;;;24.20;33.20;;;;;;2265216;61;20502;-52
2021/08/02 09:04:59;0.00;0.00;0.62;0.00;0.00;0.62;3.13;1.70;;;24.20;33.20;;;;;;2264547;61;20350;-55
2021/08/02 09:07:33;0.00;0.00;0.62;0.00;0.00;0.62;4.03;1.50;;;24.20;33.10;;;;;;2265085;61;20577;-54
2021/08/02 09:10:01;0.00;0.00;0.62;0.00;0.00;0.62;2.60;1.40;;;24.20;33.00;;;;;;2265012;61;20444;-52
2021/08/02 09:12:29;0.00;0.00;0.62;0.00;0.00;0.62;4.13;1.80;;;24.20;33.00;;;;;;2264547;61;20742;-53
2021/08/02 09:14:58;0.00;0.00;0.62;0.00;0.00;0.62;2.80;1.40;;;24.10;32.80;;;;;;2265144;61;20439;-51
2021/08/02 09:17:33;0.00;0.00;0.62;0.00;0.00;0.62;4.40;1.17;;;24.10;32.80;;;;;;2265144;61;20409;-54
2021/08/02 09:20:02;0.00;0.00;0.62;0.00;0.00;0.62;2.27;1.60;;;24.10;32.80;;;;;;2264438;61;20383;-53
2021/08/02 09:22:32;0.00;0.00;0.62;0.00;0.00;0.62;2.30;1.43;;;24.10;32.80;;;;;;2265059;61;20450;-50
2021/08/02 09:25:12;0.00;0.00;0.62;0.00;0.00;0.62;2.37;1.50;;;24.10;32.80;;;;;;2265125;61;20358;-54
2021/08/02 09:27:42;0.00;0.00;0.62;0.00;0.00;0.62;2.93;1.57;;;24.10;32.90;;;;;;2264658;61;20601;-51
2021/08/02 09:30:18;0.00;0.00;0.62;0.00;0.00;0.62;3.93;1.33;;;24.10;33.00;;;;;;2265012;61;20691;-54
2021/08/02 09:32:51;0.00;0.00;0.62;0.00;0.00;0.62;3.90;1.70;;;24.10;33.00;;;;;;2264884;61;20362;-57
2021/08/02 09:35:33;0.00;0.00;0.62;0.00;0.00;0.62;2.30;1.50;;;24.10;33.10;;;;;;2264818;61;20381;-55
2021/08/02 09:38:03;0.00;0.00;0.62;0.00;0.00;0.62;3.30;1.70;;;24.10;33.00;;;;;;2265061;61;20587;-55
2021/08/02 09:40:37;0.00;0.00;0.62;0.00;0.00;0.62;1.57;1.10;;;24.10;33.00;;;;;;2264560;61;20580;-56
2021/08/02 09:43:06;0.00;0.00;0.62;0.00;0.00;0.62;4.23;1.23;;;24.10;32.90;;;;;;2264994;61;20346;-56
2021/08/02 09:45:44;0.00;0.00;0.62;0.00;0.00;0.62;2.90;1.30;;;24.10;32.80;;;;;;2265072;61;20593;-55
2021/08/02 09:48:16;0.00;0.00;0.62;0.00;0.00;0.62;3.50;1.47;;;24.10;32.50;;;;;;2264007;61;20429;-56
2021/08/02 09:50:44;0.00;0.00;0.62;0.00;0.00;0.62;2.77;1.30;;;24.10;32.40;;;;;;2264932;61;20374;-56